createdAt,value
2019-03-20T00:01:19.526Z,15.40
2019-03-20T00:06:23.346Z,13.70
2019-03-20T00:11:27.093Z,10.93
2019-03-20T00:16:30.780Z,10.60
2019-03-20T00:21:34.449Z,11.77
2019-03-20T00:26:38.173Z,14.07
2019-03-20T00:31:41.854Z,10.40
2019-03-20T00:36:45.517Z,10.30
2019-03-20T00:41:49.218Z,12.30
2019-03-20T00:46:52.945Z,10.47
2019-03-20T00:51:56.733Z,13.40
2019-03-20T00:57:00.497Z,15.20
2019-03-20T01:02:04.316Z,15.53
2019-03-20T01:07:10.135Z,11.10
2019-03-20T01:12:13.978Z,13.03
2019-03-20T01:17:17.730Z,16.97
2019-03-20T01:22:21.735Z,14.13
2019-03-20T01:27:25.408Z,17.63
2019-03-20T01:32:29.069Z,15.90
2019-03-20T01:37:32.796Z,15.23
2019-03-20T01:42:36.442Z,20.03
2019-03-20T01:47:40.069Z,16.10
2019-03-20T01:52:43.730Z,17.87
2019-03-20T01:57:47.376Z,12.60
2019-03-20T02:02:51.422Z,13.27
2019-03-20T02:07:55.439Z,15.23
2019-03-20T02:12:59.248Z,17.00
2019-03-20T02:18:02.912Z,10.97
2019-03-20T02:23:06.805Z,12.40
2019-03-20T02:28:10.491Z,13.90
2019-03-20T02:33:14.145Z,17.73
2019-03-20T02:38:17.793Z,17.13
2019-03-20T02:43:21.811Z,15.77
2019-03-20T02:48:25.479Z,17.33
2019-03-20T02:53:29.161Z,16.93
2019-03-20T02:58:32.807Z,20.03
2019-03-20T03:03:36.474Z,10.93
2019-03-20T03:08:40.126Z,12.80
2019-03-20T03:13:43.782Z,14.30
2019-03-20T03:18:47.446Z,13.83
2019-03-20T03:23:51.102Z,13.70
2019-03-20T03:28:54.759Z,20.73
2019-03-20T03:33:58.687Z,20.13
2019-03-20T03:39:04.357Z,14.50
2019-03-20T03:44:08.323Z,12.87
2019-03-20T03:49:11.989Z,15.33
2019-03-20T03:54:15.638Z,17.20
2019-03-20T03:59:19.799Z,13.00
2019-03-20T04:04:23.575Z,23.87
2019-03-20T04:09:27.237Z,12.93
2019-03-20T04:14:30.898Z,19.90
2019-03-20T04:19:34.559Z,14.23
2019-03-20T04:24:38.243Z,14.83
2019-03-20T04:29:41.927Z,15.70
2019-03-20T04:34:46.171Z,16.43
2019-03-20T04:39:49.837Z,16.50
2019-03-20T04:44:53.820Z,19.23
2019-03-20T04:49:57.495Z,14.00
2019-03-20T04:55:01.265Z,21.70
2019-03-20T05:00:06.401Z,16.43
2019-03-20T05:05:10.679Z,20.10
2019-03-20T05:10:14.427Z,26.30
2019-03-20T05:15:18.381Z,19.73
2019-03-20T05:20:22.165Z,39.40
2019-03-20T05:25:25.823Z,19.93
2019-03-20T05:30:29.725Z,16.23
2019-03-20T05:35:33.391Z,14.67
2019-03-20T05:40:37.685Z,15.17
2019-03-20T05:45:41.340Z,13.20
2019-03-20T05:50:45.014Z,20.27
2019-03-20T05:55:48.739Z,16.80
2019-03-20T06:00:52.407Z,12.27
2019-03-20T06:05:56.112Z,16.87
2019-03-20T06:10:59.817Z,14.00
2019-03-20T06:16:03.715Z,13.57
2019-03-20T06:21:07.401Z,16.20
2019-03-20T06:26:11.100Z,16.50
2019-03-20T06:31:14.786Z,13.70
2019-03-20T06:36:18.453Z,17.70
2019-03-20T06:41:22.537Z,16.83
2019-03-20T06:46:26.268Z,17.80
2019-03-20T06:51:29.937Z,18.47
2019-03-20T06:56:33.887Z,16.23
2019-03-20T07:01:37.571Z,18.87
2019-03-20T07:06:51.400Z,15.00
2019-03-20T07:11:55.414Z,13.23
2019-03-20T07:16:59.338Z,13.77
2019-03-20T07:22:02.993Z,13.20
2019-03-20T07:27:06.895Z,11.27
2019-03-20T07:32:10.638Z,14.63
2019-03-20T07:37:14.398Z,13.77
2019-03-20T07:42:18.377Z,11.77
2019-03-20T07:47:22.414Z,17.47
2019-03-20T07:52:26.657Z,17.03
2019-03-20T07:57:30.633Z,10.73
2019-03-20T08:02:34.325Z,13.77
2019-03-20T08:07:37.997Z,13.13
2019-03-20T08:12:41.690Z,13.83
2019-03-20T08:17:45.463Z,12.23
2019-03-20T08:22:49.467Z,15.47
2019-03-20T08:27:53.609Z,9.93
2019-03-20T08:32:57.322Z,10.73
2019-03-20T08:38:01.010Z,10.90
2019-03-20T08:43:05.196Z,12.70
2019-03-20T08:48:09.258Z,12.82
2019-03-20T08:53:13.231Z,9.98
2019-03-20T08:58:17.432Z,9.83
2019-03-20T09:03:21.162Z,9.53
2019-03-20T09:08:29.595Z,9.45
2019-03-20T09:13:30.935Z,5.92
2019-03-20T09:18:34.958Z,7.00
2019-03-20T09:23:40.766Z,6.50
2019-03-20T09:28:44.596Z,11.28
2019-03-20T09:33:48.337Z,7.92
2019-03-20T09:38:55.767Z,6.72
2019-03-20T09:43:59.866Z,6.40
2019-03-20T09:49:03.631Z,8.85
2019-03-20T09:54:07.363Z,10.20
2019-03-20T09:59:11.109Z,8.05
2019-03-20T10:04:14.772Z,7.45
2019-03-20T10:09:18.466Z,6.22
2019-03-20T10:14:22.445Z,8.35
2019-03-20T10:19:26.155Z,9.43
2019-03-20T10:24:29.846Z,5.00
2019-03-20T10:29:33.568Z,7.03
2019-03-20T10:34:39.682Z,6.70
2019-03-20T10:39:42.659Z,11.00
2019-03-20T10:44:46.381Z,8.63
2019-03-20T10:49:50.063Z,9.68
2019-03-20T10:54:54.002Z,6.33
2019-03-20T10:59:57.667Z,6.97
2019-03-20T11:05:01.367Z,7.03
2019-03-20T11:10:06.155Z,7.00
2019-03-20T11:15:11.578Z,8.63
2019-03-20T11:20:16.477Z,7.72
2019-03-20T11:25:20.758Z,8.23
2019-03-20T11:30:24.971Z,9.13
2019-03-20T11:35:28.640Z,8.25
2019-03-20T11:40:33.400Z,8.13
2019-03-20T11:45:37.458Z,8.23
2019-03-20T11:50:41.165Z,7.95
2019-03-20T11:55:48.555Z,7.47
2019-03-20T12:00:52.682Z,6.30
2019-03-20T12:05:56.362Z,9.15
2019-03-20T12:11:00.340Z,6.75
2019-03-20T12:16:04.353Z,4.55
2019-03-20T12:21:08.009Z,11.38
2019-03-20T12:26:11.698Z,7.05
2019-03-20T12:31:15.637Z,11.88
2019-03-20T12:36:19.305Z,7.33
2019-03-20T12:41:24.666Z,10.68
2019-03-20T12:46:40.993Z,9.18
2019-03-20T12:51:33.834Z,9.43
2019-03-20T12:56:37.833Z,8.43
2019-03-20T13:01:41.512Z,6.28
2019-03-20T13:06:45.194Z,7.12
2019-03-20T13:11:48.865Z,9.03
2019-03-20T13:16:52.538Z,8.38
2019-03-20T13:21:56.215Z,10.15
2019-03-20T13:26:59.896Z,4.50
2019-03-20T13:32:03.784Z,8.08
2019-03-20T13:37:07.910Z,7.62
2019-03-20T13:42:11.955Z,10.50
2019-03-20T13:47:15.730Z,7.40
2019-03-20T13:52:19.397Z,8.53
2019-03-20T13:57:23.047Z,5.75
2019-03-20T14:02:26.734Z,9.13
2019-03-20T14:07:30.649Z,10.03
2019-03-20T14:12:34.321Z,9.63
2019-03-20T14:17:38.294Z,9.93
2019-03-20T14:22:41.953Z,8.88
2019-03-20T14:27:45.694Z,6.95
2019-03-20T14:32:49.486Z,5.90
2019-03-20T14:37:53.263Z,10.95
2019-03-20T14:42:57.047Z,8.53
2019-03-20T14:48:00.837Z,7.70
2019-03-20T14:53:04.706Z,3.65
2019-03-20T14:58:08.366Z,5.65
2019-03-20T15:03:12.049Z,8.13
2019-03-20T15:08:15.728Z,9.68
2019-03-20T15:13:19.710Z,5.87
2019-03-20T15:18:23.706Z,9.88
2019-03-20T15:23:27.558Z,11.57
2019-03-20T15:28:31.249Z,7.00
2019-03-20T15:33:34.981Z,6.83
2019-03-20T15:38:38.748Z,8.33
2019-03-20T15:43:42.525Z,7.53
2019-03-20T15:48:48.737Z,7.47
2019-03-20T15:53:52.681Z,6.80
2019-03-20T15:58:56.708Z,5.53
2019-03-20T16:04:00.473Z,6.93
2019-03-20T16:09:07.857Z,9.00
2019-03-20T16:14:11.925Z,7.23
2019-03-20T16:19:15.817Z,8.30
2019-03-20T16:24:19.496Z,6.20
2019-03-20T16:29:25.726Z,9.03
2019-03-20T16:34:29.413Z,7.63
2019-03-20T16:39:33.114Z,9.63
2019-03-20T16:44:36.845Z,8.97
2019-03-20T16:49:41.051Z,7.07
2019-03-20T16:54:44.758Z,6.30
2019-03-20T16:59:48.546Z,9.40
2019-03-20T17:04:52.688Z,9.73
2019-03-20T17:09:56.359Z,9.93
2019-03-20T17:15:00.049Z,6.33
2019-03-20T17:20:04.219Z,11.37
2019-03-20T17:25:08.431Z,8.67
2019-03-20T17:30:15.158Z,10.67
2019-03-20T17:35:19.290Z,9.53
2019-03-20T17:40:24.089Z,10.40
2019-03-20T17:45:28.285Z,10.57
2019-03-20T17:50:32.317Z,8.83
2019-03-20T17:55:35.993Z,13.03
2019-03-20T18:00:42.031Z,10.57
2019-03-20T18:05:45.892Z,9.83
2019-03-20T18:10:49.585Z,15.70
2019-03-20T18:15:53.317Z,19.37
2019-03-20T18:20:57.021Z,16.73
2019-03-20T18:26:00.747Z,28.03
2019-03-20T18:31:04.480Z,33.63
2019-03-20T18:36:08.791Z,27.67
2019-03-20T18:41:13.886Z,36.77
2019-03-20T18:46:17.593Z,28.30
2019-03-20T18:51:21.893Z,21.97
2019-03-20T18:56:25.921Z,14.67
2019-03-20T19:01:29.618Z,17.73
2019-03-20T19:06:33.784Z,25.47
2019-03-20T19:11:37.674Z,19.40
2019-03-20T19:16:42.070Z,24.00
2019-03-20T19:21:46.094Z,25.57
2019-03-20T19:26:50.503Z,22.97
2019-03-20T19:31:55.776Z,14.90
2019-03-20T19:36:59.668Z,17.00
2019-03-20T19:42:03.354Z,18.27
2019-03-20T19:47:07.358Z,17.33
2019-03-20T19:52:11.101Z,20.53
2019-03-20T19:57:14.837Z,22.17
2019-03-20T20:02:18.589Z,18.23
2019-03-20T20:07:22.785Z,19.30
2019-03-20T20:12:31.097Z,23.03
2019-03-20T20:17:32.268Z,17.53
2019-03-20T20:22:36.008Z,18.33
2019-03-20T20:27:39.671Z,18.97
2019-03-20T20:32:46.764Z,20.83
2019-03-20T20:37:50.651Z,23.80
2019-03-20T20:42:54.473Z,20.87
2019-03-20T20:47:58.344Z,17.57
2019-03-20T20:53:02.451Z,20.10
2019-03-20T20:58:06.300Z,26.00
2019-03-20T21:03:10.381Z,19.67
2019-03-20T21:08:14.115Z,24.90
2019-03-20T21:13:17.820Z,16.80
2019-03-20T21:19:21.266Z,15.33
2019-03-20T21:24:28.027Z,12.20
2019-03-20T21:30:27.269Z,16.67
2019-03-20T21:36:29.806Z,18.17
2019-03-20T21:42:20.727Z,16.37
2019-03-20T21:47:32.793Z,18.03
2019-03-20T21:52:37.336Z,14.63
2019-03-20T21:58:11.769Z,16.37
2019-03-20T22:03:16.006Z,15.23
2019-03-20T22:08:20.339Z,19.07
2019-03-20T22:13:31.883Z,14.53
2019-03-20T22:19:20.470Z,15.10
2019-03-20T22:24:45.354Z,17.00
2019-03-20T22:29:49.977Z,13.90
2019-03-20T22:35:37.989Z,11.60
2019-03-20T22:41:18.162Z,13.13
2019-03-20T22:46:59.016Z,10.80
2019-03-20T22:52:37.791Z,15.97
2019-03-20T22:58:04.470Z,11.57
2019-03-20T23:03:13.609Z,13.30
2019-03-20T23:08:17.829Z,13.13
2019-03-20T23:13:22.130Z,11.27
2019-03-20T23:18:26.398Z,14.17
2019-03-20T23:23:31.765Z,12.53
2019-03-20T23:28:36.375Z,13.97
2019-03-20T23:33:40.702Z,15.70
2019-03-20T23:38:44.939Z,11.03
2019-03-20T23:43:53.220Z,12.80
2019-03-20T23:48:59.202Z,15.77
2019-03-20T23:54:03.592Z,14.07
2019-03-20T23:59:08.266Z,10.23
